Time;durP1;ratioP1;P1;durP2;ratioP2;P2;SDS_P1;SDS_P2;PMS_P1;PMS_P2;Temp;Humidity;BMP_temperature;BMP_pressure;BME280_temperature;BME280_humidity;BME280_pressure;Samples;Min_cycle;Max_cycle;Signal;HPM_P1;HPM_P2
2021/12/20 00:01:21;;;;;;;38;21.1;;;;;;;;;;;;;
2021/12/20 00:03:53;;;;;;;37.9;20.9;;;;;;;;;;;;;
2021/12/20 00:06:18;;;;;;;37.7;19.9;;;;;;;;;;;;;
2021/12/20 00:08:44;;;;;;;36.6;20.3;;;;;;;;;;;;;
2021/12/20 00:11:09;;;;;;;33.5;19.2;;;;;;;;;;;;;
2021/12/20 00:13:34;;;;;;;34.5;18.8;;;;;;;;;;;;;
2021/12/20 00:16:00;;;;;;;34.5;19.1;;;;;;;;;;;;;
2021/12/20 00:18:25;;;;;;;32.7;18;;;;;;;;;;;;;
2021/12/20 00:20:50;;;;;;;34.4;19.4;;;;;;;;;;;;;
2021/12/20 00:23:15;;;;;;;36.4;19.4;;;;;;;;;;;;;
2021/12/20 00:25:42;;;;;;;32.4;18.2;;;;;;;;;;;;;
2021/12/20 00:28:06;;;;;;;32.9;17.7;;;;;;;;;;;;;
2021/12/20 00:30:32;;;;;;;33.3;19;;;;;;;;;;;;;
2021/12/20 00:32:57;;;;;;;32.4;18.3;;;;;;;;;;;;;
2021/12/20 00:35:24;;;;;;;30.4;17.8;;;;;;;;;;;;;
2021/12/20 00:40:25;;;;;;;28.9;16.8;;;;;;;;;;;;;
2021/12/20 00:42:50;;;;;;;28.1;16.1;;;;;;;;;;;;;
2021/12/20 00:45:16;;;;;;;26;15.5;;;;;;;;;;;;;
2021/12/20 00:47:41;;;;;;;27.4;16.4;;;;;;;;;;;;;
2021/12/20 00:50:06;;;;;;;30;17.6;;;;;;;;;;;;;
2021/12/20 00:52:31;;;;;;;31;17.8;;;;;;;;;;;;;
2021/12/20 00:54:56;;;;;;;31.4;17.7;;;;;;;;;;;;;
2021/12/20 00:57:21;;;;;;;30.3;17.1;;;;;;;;;;;;;
2021/12/20 00:59:46;;;;;;;29.7;17;;;;;;;;;;;;;
2021/12/20 01:02:12;;;;;;;28.7;16.1;;;;;;;;;;;;;
2021/12/20 01:04:37;;;;;;;29;16.9;;;;;;;;;;;;;
2021/12/20 01:07:02;;;;;;;26.9;15.6;;;;;;;;;;;;;
2021/12/20 01:09:28;;;;;;;27;16;;;;;;;;;;;;;
2021/12/20 01:11:54;;;;;;;27.4;16.6;;;;;;;;;;;;;
2021/12/20 01:14:22;;;;;;;24;15.1;;;;;;;;;;;;;
2021/12/20 01:16:43;;;;;;;25.6;15.8;;;;;;;;;;;;;
2021/12/20 01:19:09;;;;;;;30;16;;;;;;;;;;;;;
2021/12/20 01:21:34;;;;;;;27.3;15.6;;;;;;;;;;;;;
2021/12/20 01:23:59;;;;;;;45.9;28;;;;;;;;;;;;;
2021/12/20 01:26:24;;;;;;;24.5;14.7;;;;;;;;;;;;;
2021/12/20 01:28:49;;;;;;;24.7;15.4;;;;;;;;;;;;;
2021/12/20 01:31:15;;;;;;;26;15.8;;;;;;;;;;;;;
2021/12/20 01:33:40;;;;;;;25.6;15.2;;;;;;;;;;;;;
2021/12/20 01:36:05;;;;;;;28.2;16.1;;;;;;;;;;;;;
2021/12/20 01:38:30;;;;;;;30;17.7;;;;;;;;;;;;;
2021/12/20 01:40:55;;;;;;;27.3;16.8;;;;;;;;;;;;;
2021/12/20 01:43:21;;;;;;;29.4;17.4;;;;;;;;;;;;;
2021/12/20 01:45:48;;;;;;;27.3;16.3;;;;;;;;;;;;;
2021/12/20 01:48:14;;;;;;;27.9;16.7;;;;;;;;;;;;;
2021/12/20 01:50:41;;;;;;;27.2;16.3;;;;;;;;;;;;;
2021/12/20 01:53:02;;;;;;;28.2;16.8;;;;;;;;;;;;;
2021/12/20 01:55:27;;;;;;;27.9;16.4;;;;;;;;;;;;;
2021/12/20 01:57:53;;;;;;;26.9;16.2;;;;;;;;;;;;;
2021/12/20 02:00:19;;;;;;;27.4;15.7;;;;;;;;;;;;;
2021/12/20 02:02:44;;;;;;;25.5;15.7;;;;;;;;;;;;;
2021/12/20 02:05:18;;;;;;;25.8;15.5;;;;;;;;;;;;;
2021/12/20 02:07:37;;;;;;;26.4;15.8;;;;;;;;;;;;;
2021/12/20 02:10:01;;;;;;;25.4;15.8;;;;;;;;;;;;;
2021/12/20 02:12:26;;;;;;;28.3;17.2;;;;;;;;;;;;;
2021/12/20 02:14:52;;;;;;;26.6;15.8;;;;;;;;;;;;;
2021/12/20 02:17:18;;;;;;;27.7;16.1;;;;;;;;;;;;;
2021/12/20 02:19:43;;;;;;;28.7;16.8;;;;;;;;;;;;;
2021/12/20 02:22:09;;;;;;;26.9;15.9;;;;;;;;;;;;;
2021/12/20 02:24:34;;;;;;;26.2;16.1;;;;;;;;;;;;;
2021/12/20 02:27:01;;;;;;;25.3;15.9;;;;;;;;;;;;;
2021/12/20 02:29:41;;;;;;;29.9;16.9;;;;;;;;;;;;;
2021/12/20 02:37:03;;;;;;;26.9;16.5;;;;;;;;;;;;;
2021/12/20 02:39:07;;;;;;;28;16.8;;;;;;;;;;;;;
2021/12/20 02:41:33;;;;;;;22.9;13.9;;;;;;;;;;;;;
2021/12/20 02:44:01;;;;;;;26.6;15.3;;;;;;;;;;;;;
2021/12/20 02:46:32;;;;;;;26.3;15.9;;;;;;;;;;;;;
2021/12/20 02:48:47;;;;;;;24.1;15.5;;;;;;;;;;;;;
2021/12/20 02:51:12;;;;;;;24.7;15.2;;;;;;;;;;;;;
2021/12/20 02:53:37;;;;;;;25;15.4;;;;;;;;;;;;;
2021/12/20 02:56:02;;;;;;;26.6;16.6;;;;;;;;;;;;;
2021/12/20 02:58:28;;;;;;;25.6;16;;;;;;;;;;;;;
2021/12/20 03:00:53;;;;;;;25.8;15.3;;;;;;;;;;;;;
2021/12/20 03:03:19;;;;;;;24.1;14.7;;;;;;;;;;;;;
2021/12/20 03:05:45;;;;;;;26.5;15.8;;;;;;;;;;;;;
2021/12/20 03:08:10;;;;;;;24.4;14.5;;;;;;;;;;;;;
2021/12/20 03:10:39;;;;;;;23.9;14.6;;;;;;;;;;;;;
2021/12/20 03:13:00;;;;;;;23.6;14.1;;;;;;;;;;;;;
2021/12/20 03:15:27;;;;;;;21.7;14.3;;;;;;;;;;;;;
2021/12/20 03:17:54;;;;;;;22.1;14.6;;;;;;;;;;;;;
2021/12/20 03:20:18;;;;;;;22.2;13.8;;;;;;;;;;;;;
2021/12/20 03:22:42;;;;;;;23.5;15.2;;;;;;;;;;;;;
2021/12/20 03:25:08;;;;;;;23.4;14.9;;;;;;;;;;;;;
2021/12/20 03:27:33;;;;;;;22.5;14.5;;;;;;;;;;;;;
2021/12/20 03:29:58;;;;;;;21.5;13.5;;;;;;;;;;;;;
2021/12/20 03:32:23;;;;;;;21.2;13.4;;;;;;;;;;;;;
2021/12/20 03:34:48;;;;;;;21.3;13.8;;;;;;;;;;;;;
2021/12/20 03:37:13;;;;;;;20.4;13.6;;;;;;;;;;;;;
2021/12/20 03:39:56;;;;;;;22.1;14;;;;;;;;;;;;;
2021/12/20 03:42:20;;;;;;;21.6;13.9;;;;;;;;;;;;;
2021/12/20 03:44:46;;;;;;;20;12.9;;;;;;;;;;;;;
2021/12/20 03:47:11;;;;;;;21.8;13.8;;;;;;;;;;;;;
2021/12/20 03:49:36;;;;;;;20.4;13.4;;;;;;;;;;;;;
2021/12/20 03:52:15;;;;;;;20.6;12.8;;;;;;;;;;;;;
2021/12/20 03:54:40;;;;;;;19.8;12.7;;;;;;;;;;;;;
2021/12/20 03:57:05;;;;;;;18.7;12.1;;;;;;;;;;;;;
2021/12/20 03:59:31;;;;;;;20.8;12.9;;;;;;;;;;;;;
2021/12/20 04:02:37;;;;;;;20.6;13.2;;;;;;;1.22;88.00879;943.2076;;;;
2021/12/20 04:04:56;;;;;;;20.8;12.4;;;;;;;1.26;88.46582;943.2508;;;;
2021/12/20 04:07:21;;;;;;;20.4;12.9;;;;;;;1.26;87.79492;943.2241;;;;
2021/12/20 04:09:46;;;;;;;20.5;13.3;;;;;;;1.12;88.22266;943.2029;;;;
2021/12/20 04:12:11;;;;;;;19.2;12.2;;;;;;;1.21;88.00781;943.2149;;;;
2021/12/20 04:15:22;;;;;;;20.9;13;;;;;;;1.27;88.07422;943.236;;;;
2021/12/20 04:17:53;;;;;;;20.6;13.6;;;;;;;1.1;87.76172;943.1617;;;;
2021/12/20 04:20:23;;;;;;;19.7;12.9;;;;;;;1.15;87.49512;943.2769;;;;
2021/12/20 04:22:49;;;;;;;18.9;12.5;;;;;;;1.17;87.59766;943.2009;;;;
2021/12/20 04:25:28;;;;;;;17.9;11.9;;;;;;;1.1;87.05762;943.1602;;;;
2021/12/20 04:27:57;;;;;;;18.7;12.3;;;;;;;0.84;88.05273;943.1361;;;;
2021/12/20 04:30:22;;;;;;;18.1;12.1;;;;;;;0.78;87.47266;943.0865;;;;
2021/12/20 04:32:50;;;;;;;17.3;11.4;;;;;;;0.95;87.80957;943.2581;;;;
2021/12/20 04:35:15;;;;;;;18.1;12.2;;;;;;;1.1;87.4502;943.2209;;;;
2021/12/20 04:37:45;;;;;;;17;11.8;;;;;;;1.13;86.86426;943.1487;;;;
2021/12/20 04:40:12;;;;;;;17.5;11.9;;;;;;;1.12;86.61621;943.1333;;;;
2021/12/20 04:42:33;;;;;;;17.5;12;;;;;;;1;86.91602;943.1161;;;;
2021/12/20 04:45:01;;;;;;;17.2;11.7;;;;;;;0.96;87.04102;943.1278;;;;
2021/12/20 04:47:40;;;;;;;17;11.8;;;;;;;1.01;86.8623;943.1653;;;;
2021/12/20 04:50:05;;;;;;;17.3;11.4;;;;;;;1.1;86.32227;943.2366;;;;
2021/12/20 04:52:30;;;;;;;17.1;12.1;;;;;;;1.21;86.02051;943.191;;;;
2021/12/20 04:54:55;;;;;;;18.5;12;;;;;;;1.25;85.55664;943.1501;;;;
2021/12/20 04:57:20;;;;;;;15.1;10.9;;;;;;;1.33;84.77051;943.0731;;;;
2021/12/20 04:59:45;;;;;;;17.1;12;;;;;;;1.2;85;943.1906;;;;
2021/12/20 05:02:13;;;;;;;18.1;12.3;;;;;;;1.04;85.98535;943.2265;;;;
2021/12/20 05:04:38;;;;;;;19.2;13.2;;;;;;;0.86;87.42285;943.1406;;;;
2021/12/20 05:07:04;;;;;;;20.6;13.4;;;;;;;0.93;88.0498;943.21;;;;
2021/12/20 05:09:35;;;;;;;21;13.3;;;;;;;0.96;87.84277;943.2201;;;;
2021/12/20 05:12:01;;;;;;;18;12.2;;;;;;;0.83;88.00684;943.2305;;;;
2021/12/20 05:14:19;;;;;;;18.4;12.5;;;;;;;0.92;87.8584;943.1655;;;;
2021/12/20 05:16:48;;;;;;;19.5;12.9;;;;;;;0.9;87.94336;943.198;;;;
2021/12/20 05:19:14;;;;;;;21.6;13.8;;;;;;;0.82;88.24121;943.288;;;;
2021/12/20 05:21:39;;;;;;;21.8;15;;;;;;;0.8;88.7373;943.317;;;;
2021/12/20 05:24:06;;;;;;;20.1;13.9;;;;;;;0.96;88.22461;943.257;;;;
2021/12/20 05:26:31;;;;;;;18.7;12.7;;;;;;;0.71;88.70703;943.2488;;;;
2021/12/20 05:28:58;;;;;;;22.8;13.7;;;;;;;0.58;89.57129;943.2037;;;;
2021/12/20 05:31:23;;;;;;;19.7;13.3;;;;;;;0.74;89.32715;943.2043;;;;
2021/12/20 05:33:49;;;;;;;25;14;;;;;;;0.72;88.85449;943.2822;;;;
2021/12/20 05:36:14;;;;;;;20.6;13.9;;;;;;;0.63;89.25977;943.3748;;;;
2021/12/20 05:38:39;;;;;;;22.8;14.5;;;;;;;0.73;89.34961;943.3614;;;;
2021/12/20 05:41:04;;;;;;;22.9;15;;;;;;;0.71;89.01074;943.4161;;;;
2021/12/20 05:43:31;;;;;;;22.9;14.3;;;;;;;0.83;88.82324;943.4274;;;;
2021/12/20 05:45:57;;;;;;;22.9;14.1;;;;;;;0.98;88.62988;943.515;;;;
2021/12/20 05:48:22;;;;;;;20.9;14.1;;;;;;;0.94;88.0752;943.5187;;;;
2021/12/20 05:50:47;;;;;;;23.3;14.9;;;;;;;1;87.74316;943.538;;;;
2021/12/20 05:53:13;;;;;;;21;13.5;;;;;;;0.97;87.27734;943.5562;;;;
2021/12/20 05:55:38;;;;;;;21.5;13.6;;;;;;;1.01;87.69824;943.5759;;;;
2021/12/20 05:58:03;;;;;;;20.2;14.2;;;;;;;1.07;87.68848;943.6584;;;;
2021/12/20 06:00:28;;;;;;;21.2;13.6;;;;;;;1.19;87.25488;943.7283;;;;
2021/12/20 06:02:53;;;;;;;17.9;12.9;;;;;;;1.18;86.94238;943.723;;;;
2021/12/20 06:05:19;;;;;;;18.9;12.9;;;;;;;1.18;86.8623;943.6397;;;;
2021/12/20 06:12:44;;;;;;;20.1;13.8;;;;;;;0.95;88.3125;943.639;;;;
2021/12/20 06:15:09;;;;;;;20.1;13;;;;;;;0.91;87.70117;943.5901;;;;
2021/12/20 06:17:36;;;;;;;17.7;12.6;;;;;;;0.92;88.28223;943.5488;;;;
2021/12/20 06:20:00;;;;;;;20.6;13.6;;;;;;;0.94;87.81934;943.6253;;;;
2021/12/20 06:22:25;;;;;;;19;13.1;;;;;;;1.04;87.89355;943.6879;;;;
2021/12/20 06:24:50;;;;;;;17.9;12.6;;;;;;;1.13;87.47852;943.7228;;;;
2021/12/20 06:27:17;;;;;;;17.7;11.8;;;;;;;1.16;87.20508;943.7534;;;;
2021/12/20 06:29:42;;;;;;;19.3;13;;;;;;;1.05;87.26074;943.7766;;;;
2021/12/20 06:32:08;;;;;;;17.7;11.9;;;;;;;1.24;86.59375;943.8415;;;;
2021/12/20 06:34:33;;;;;;;19.6;12.7;;;;;;;1.28;86.81543;943.9064;;;;
2021/12/20 06:37:00;;;;;;;18.6;12;;;;;;;1.27;86.71289;943.8362;;;;
2021/12/20 06:39:25;;;;;;;19.2;12.9;;;;;;;1.32;86.61035;943.9659;;;;
2021/12/20 06:41:53;;;;;;;16.3;11.9;;;;;;;1.28;86.62793;943.9703;;;;
2021/12/20 06:44:18;;;;;;;18.4;12.9;;;;;;;1.39;86.22363;943.8903;;;;
2021/12/20 06:46:46;;;;;;;16.2;11.2;;;;;;;1.34;85.74512;943.9818;;;;
2021/12/20 06:49:11;;;;;;;18;11.7;;;;;;;1.29;86.32617;943.9448;;;;
2021/12/20 06:51:39;;;;;;;15.9;11.5;;;;;;;1.28;86.15625;943.9293;;;;
2021/12/20 06:54:01;;;;;;;20;13.1;;;;;;;1.21;86.51074;943.9099;;;;
2021/12/20 06:56:27;;;;;;;18.3;11.9;;;;;;;1.14;86.875;943.8618;;;;
2021/12/20 06:58:54;;;;;;;15.5;11.5;;;;;;;1.21;86.91211;943.866;;;;
2021/12/20 07:01:19;;;;;;;15.6;11.4;;;;;;;1.24;86.45996;943.8142;;;;
2021/12/20 07:03:45;;;;;;;17.3;11.6;;;;;;;1.18;86.29492;943.7789;;;;
2021/12/20 07:06:11;;;;;;;15.4;10.4;;;;;;;1.17;85.66504;943.6965;;;;
2021/12/20 07:08:36;;;;;;;18.8;12.5;;;;;;;1.09;85.93945;943.6705;;;;
2021/12/20 07:11:05;;;;;;;23.9;16.5;;;;;;;1.26;85.75098;943.6615;;;;
2021/12/20 07:13:29;;;;;;;31;21.2;;;;;;;1.23;85.41016;943.6373;;;;
2021/12/20 07:15:59;;;;;;;34.2;20.9;;;;;;;1.27;85.83105;943.5742;;;;
2021/12/20 07:18:25;;;;;;;26.3;17.9;;;;;;;1.35;85.97168;943.5159;;;;
2021/12/20 07:20:52;;;;;;;31.6;20;;;;;;;1.29;85.32031;943.5383;;;;
2021/12/20 07:23:17;;;;;;;25.8;17.7;;;;;;;1.41;84.96582;943.5144;;;;
2021/12/20 07:25:42;;;;;;;17.6;11.7;;;;;;;1.25;83.87207;943.5355;;;;
2021/12/20 07:28:07;;;;;;;17.9;11.8;;;;;;;1.18;85.06543;943.5248;;;;
2021/12/20 07:30:35;;;;;;;16.9;11.7;;;;;;;1.22;84.68164;943.5421;;;;
2021/12/20 07:33:01;;;;;;;16.2;11.3;;;;;;;1.09;84.44238;943.5017;;;;
2021/12/20 07:35:27;;;;;;;14.8;10.7;;;;;;;0.96;85.11914;943.5007;;;;
2021/12/20 07:37:53;;;;;;;14.5;10.6;;;;;;;1.14;84.90918;943.4885;;;;
2021/12/20 07:40:19;;;;;;;15.2;10.4;;;;;;;1.21;84.79004;943.5145;;;;
2021/12/20 07:42:44;;;;;;;14.4;10.6;;;;;;;1.28;84.79297;943.544;;;;
2021/12/20 07:45:10;;;;;;;16.7;11.2;;;;;;;1.32;85.24707;943.5737;;;;
2021/12/20 07:47:35;;;;;;;17.1;11.3;;;;;;;1.4;85.17676;943.551;;;;
2021/12/20 07:50:02;;;;;;;17.9;11.5;;;;;;;1.53;84.64258;943.5402;;;;
2021/12/20 07:52:27;;;;;;;15.6;11.2;;;;;;;1.6;84.21973;943.5938;;;;
2021/12/20 07:54:53;;;;;;;14.9;9.9;;;;;;;1.6;82.95605;943.5916;;;;
2021/12/20 07:57:18;;;;;;;14.3;9.6;;;;;;;1.71;82.87793;943.5552;;;;
2021/12/20 07:59:45;;;;;;;16;11.1;;;;;;;1.73;82.78125;943.4768;;;;
2021/12/20 08:02:10;;;;;;;16.2;11.1;;;;;;;1.73;82.02051;943.484;;;;
2021/12/20 08:04:38;;;;;;;14.8;10.4;;;;;;;1.64;81.94727;943.5563;;;;
2021/12/20 08:07:03;;;;;;;18;11.8;;;;;;;1.75;82.02344;943.5972;;;;
2021/12/20 08:09:29;;;;;;;18;11;;;;;;;1.78;81.73828;943.6481;;;;
2021/12/20 08:11:54;;;;;;;17.2;10.8;;;;;;;1.87;81.62109;943.5861;;;;
2021/12/20 08:14:20;;;;;;;17.6;10.5;;;;;;;1.87;81.57813;943.7519;;;;
2021/12/20 08:16:48;;;;;;;15.3;10.5;;;;;;;1.94;81.31055;943.7184;;;;
2021/12/20 08:19:52;;;;;;;15.4;10.4;;;;;;;1.99;81.34375;943.6873;;;;
2021/12/20 08:22:24;;;;;;;14.9;10.2;;;;;;;1.92;81.49805;943.6869;;;;
2021/12/20 08:24:45;;;;;;;14.2;9.1;;;;;;;1.93;81.52148;943.6639;;;;
2021/12/20 08:27:10;;;;;;;14.5;9;;;;;;;1.92;81.38574;943.6203;;;;
2021/12/20 08:29:37;;;;;;;12.6;8.7;;;;;;;1.97;81.25098;943.7484;;;;
2021/12/20 08:32:02;;;;;;;11.8;8.3;;;;;;;2.04;81.2959;943.7087;;;;
2021/12/20 08:34:27;;;;;;;11.8;8.8;;;;;;;2.18;81.29004;943.7481;;;;
2021/12/20 08:36:53;;;;;;;12.4;9.2;;;;;;;2.22;81.19824;943.675;;;;
2021/12/20 08:39:19;;;;;;;13.8;9.2;;;;;;;2.28;80.2002;943.618;;;;
2021/12/20 08:41:43;;;;;;;14.3;9.4;;;;;;;2.25;79.80371;943.714;;;;
2021/12/20 08:44:09;;;;;;;14.7;10;;;;;;;2.26;80.85645;943.6846;;;;
2021/12/20 08:46:34;;;;;;;13.9;10.3;;;;;;;2.26;80.5332;943.6951;;;;
2021/12/20 08:49:01;;;;;;;15.5;10.1;;;;;;;2.29;81.08691;943.7399;;;;
2021/12/20 08:51:26;;;;;;;16.1;11.8;;;;;;;2.34;79.68652;943.7508;;;;
2021/12/20 08:53:52;;;;;;;15;10.7;;;;;;;2.23;80.20117;943.7484;;;;
2021/12/20 08:56:18;;;;;;;17.1;11.3;;;;;;;2.15;81.12891;943.7174;;;;
2021/12/20 08:58:44;;;;;;;15.2;10.8;;;;;;;2.34;80.75977;943.7756;;;;
2021/12/20 09:01:09;;;;;;;15.1;11;;;;;;;2.4;80.38184;943.7867;;;;
2021/12/20 09:03:36;;;;;;;26.1;18.6;;;;;;;2.55;80.48926;943.6844;;;;
2021/12/20 09:06:01;;;;;;;26;19.4;;;;;;;2.57;80.1543;943.7637;;;;
2021/12/20 09:08:28;;;;;;;19;14.1;;;;;;;2.68;80.27734;943.7466;;;;
2021/12/20 09:10:52;;;;;;;14.8;10.6;;;;;;;2.77;79.07031;943.7186;;;;
2021/12/20 09:13:20;;;;;;;15.3;10.8;;;;;;;2.87;78.79785;943.7808;;;;
2021/12/20 09:15:46;;;;;;;12.2;9.2;;;;;;;2.82;77.48633;943.8539;;;;
2021/12/20 09:18:16;;;;;;;13.8;9.3;;;;;;;2.9;78.21973;943.7885;;;;
2021/12/20 09:20:41;;;;;;;12.4;9;;;;;;;2.99;78.125;943.8219;;;;
2021/12/20 09:23:11;;;;;;;12.8;8.6;;;;;;;2.96;77.37988;943.8032;;;;
2021/12/20 09:25:33;;;;;;;11.8;8.6;;;;;;;3.06;77.41895;943.7413;;;;
2021/12/20 09:28:12;;;;;;;11.3;8.3;;;;;;;3.13;76.51172;943.7555;;;;
2021/12/20 09:30:37;;;;;;;11.8;7.7;;;;;;;3.02;76.32422;943.76;;;;
2021/12/20 09:33:02;;;;;;;11.7;8.6;;;;;;;3.16;76.16895;943.8353;;;;
2021/12/20 09:35:31;;;;;;;10.5;8;;;;;;;3.19;74.49219;943.8179;;;;
2021/12/20 09:37:56;;;;;;;13.4;9.3;;;;;;;2.78;75.44141;943.8078;;;;
2021/12/20 09:40:32;;;;;;;14.2;9.5;;;;;;;2.92;76.40527;943.7477;;;;
2021/12/20 09:42:49;;;;;;;13.7;8.7;;;;;;;3.14;75.26953;943.6892;;;;
2021/12/20 09:45:14;;;;;;;14.2;9.3;;;;;;;3.24;75.99219;943.7456;;;;
2021/12/20 09:47:40;;;;;;;18.9;10.6;;;;;;;3.19;75.13281;943.8017;;;;
2021/12/20 09:53:58;;;;;;;10.6;7.7;;;;;;;3.38;74.23145;943.8088;;;;
2021/12/20 09:56:23;;;;;;;10.4;7.6;;;;;;;3.45;74.09961;943.7681;;;;
2021/12/20 09:58:49;;;;;;;10.8;7.2;;;;;;;3.33;74.25879;943.6644;;;;
2021/12/20 10:01:15;;;;;;;10.8;7.7;;;;;;;3.41;74.05859;943.7036;;;;
2021/12/20 10:03:41;;;;;;;10.9;7.8;;;;;;;3.55;74.08301;943.6694;;;;
2021/12/20 10:06:06;;;;;;;10.1;7.4;;;;;;;3.76;74.52441;943.62;;;;
2021/12/20 10:08:35;;;;;;;10.1;7.4;;;;;;;3.86;74.32813;943.5653;;;;
2021/12/20 10:10:57;;;;;;;11.5;7.4;;;;;;;3.96;74.1543;943.5769;;;;
2021/12/20 10:13:22;;;;;;;11;7.5;;;;;;;4.03;73.43457;943.5586;;;;
2021/12/20 10:16:02;;;;;;;10.9;7.4;;;;;;;4.1;71.94238;943.5115;;;;
2021/12/20 10:18:28;;;;;;;9.7;6.7;;;;;;;3.58;72.21191;943.4777;;;;
2021/12/20 10:20:54;;;;;;;10.6;7.2;;;;;;;3.17;73.50098;943.4404;;;;
2021/12/20 10:23:20;;;;;;;9.7;7.4;;;;;;;3.58;73.13281;943.3959;;;;
2021/12/20 10:25:45;;;;;;;8.6;6.6;;;;;;;3.87;72.74414;943.3691;;;;
2021/12/20 10:28:11;;;;;;;9.1;6.2;;;;;;;3.62;71.15039;943.4546;;;;
2021/12/20 10:30:38;;;;;;;9.2;6.1;;;;;;;3.75;71.76758;943.335;;;;
2021/12/20 10:33:04;;;;;;;8.9;6.5;;;;;;;3.95;70.81348;943.3848;;;;
2021/12/20 10:35:29;;;;;;;8.8;6.5;;;;;;;4;70.5957;943.3578;;;;
2021/12/20 10:37:53;;;;;;;9.2;6.5;;;;;;;4.14;71.18164;943.3284;;;;
2021/12/20 10:40:18;;;;;;;8.3;6.1;;;;;;;4.13;70.35938;943.3424;;;;
2021/12/20 10:42:43;;;;;;;8.5;5.8;;;;;;;4.34;69.32422;943.3206;;;;
2021/12/20 10:45:09;;;;;;;7.4;5.6;;;;;;;4.51;70.6582;943.1927;;;;
2021/12/20 10:47:34;;;;;;;8.6;5.8;;;;;;;4.51;69.02441;943.2313;;;;
2021/12/20 10:49:59;;;;;;;10.3;6.2;;;;;;;4.66;69.61426;943.1795;;;;
2021/12/20 10:52:24;;;;;;;8.8;6.2;;;;;;;4.88;69.77344;943.1362;;;;
2021/12/20 10:54:49;;;;;;;8.6;6.3;;;;;;;5.09;68.49902;943.2556;;;;
2021/12/20 10:57:15;;;;;;;7.7;6;;;;;;;5.05;66.57715;943.1839;;;;
2021/12/20 10:59:41;;;;;;;8.4;6.5;;;;;;;4.96;68.96387;943.1882;;;;
2021/12/20 11:04:34;;;;;;;7.4;5.3;;;;;;;5.25;65.99805;943.1165;;;;
2021/12/20 11:09:04;;;;;;;8.8;5.9;;;;;;;5.4;66.09082;943.1082;;;;
2021/12/20 11:09:22;;;;;;;7.9;5.8;;;;;;;5.49;65.65332;943.0864;;;;
2021/12/20 11:11:47;;;;;;;7.6;5.4;;;;;;;5.51;65.57715;943.0955;;;;
2021/12/20 11:14:13;;;;;;;8;5.7;;;;;;;5.71;66.24023;943.0446;;;;
2021/12/20 11:16:46;;;;;;;9.6;6.4;;;;;;;5.79;66.71582;943.0292;;;;
2021/12/20 11:19:13;;;;;;;7.5;5.9;;;;;;;5.73;64.91016;943.0342;;;;
2021/12/20 11:21:38;;;;;;;8;6;;;;;;;5.79;65.28125;943.0197;;;;
2021/12/20 11:24:03;;;;;;;6.7;5.1;;;;;;;5.87;65.1582;942.9612;;;;
2021/12/20 11:26:28;;;;;;;7.9;5.6;;;;;;;5.92;64.20508;942.9752;;;;
2021/12/20 11:28:53;;;;;;;8.1;5.8;;;;;;;5.61;65.51367;943.0072;;;;
2021/12/20 11:31:18;;;;;;;9.8;5.7;;;;;;;5.74;65.07129;943.0023;;;;
2021/12/20 11:33:45;;;;;;;8.2;5.4;;;;;;;5.75;63.96484;942.925;;;;
2021/12/20 11:36:10;;;;;;;6.9;5.4;;;;;;;5.81;64.48242;943.0168;;;;
2021/12/20 11:39:10;;;;;;;6.6;5.2;;;;;;;5.44;64.40332;943.0435;;;;
2021/12/20 11:41:35;;;;;;;9.1;5.5;;;;;;;5.57;65.41699;942.8862;;;;
2021/12/20 11:44:00;;;;;;;7.6;5.6;;;;;;;5.62;65.80859;942.9481;;;;
2021/12/20 11:46:25;;;;;;;8.3;5.8;;;;;;;5.63;65.3916;942.921;;;;
2021/12/20 11:48:50;;;;;;;7;5.4;;;;;;;5.6;65.18457;942.9606;;;;
2021/12/20 11:51:15;;;;;;;8.5;6.4;;;;;;;5.63;65.59473;942.9612;;;;
2021/12/20 11:53:41;;;;;;;7.9;6.3;;;;;;;5.77;65.27734;942.9597;;;;
2021/12/20 11:56:05;;;;;;;8.8;6.4;;;;;;;5.83;64.90137;942.8695;;;;
2021/12/20 11:58:37;;;;;;;9.3;6.9;;;;;;;5.88;64.58203;942.9196;;;;
2021/12/20 12:01:00;;;;;;;8;6;;;;;;;5.78;64.80566;942.9348;;;;
2021/12/20 12:03:26;;;;;;;7.6;6.2;;;;;;;5.31;66.29004;942.964;;;;
2021/12/20 12:05:51;;;;;;;9;6.3;;;;;;;4.58;69.75684;943.0442;;;;
2021/12/20 12:08:17;;;;;;;9.5;6.3;;;;;;;4.61;68.91797;942.9835;;;;
2021/12/20 12:10:45;;;;;;;8.8;5.6;;;;;;;4.84;67.78418;942.9841;;;;
2021/12/20 12:13:15;;;;;;;8.7;5.9;;;;;;;4.83;68.35645;942.94;;;;
2021/12/20 12:15:44;;;;;;;7.5;5.8;;;;;;;4.9;66.51953;942.9584;;;;
2021/12/20 12:18:10;;;;;;;9;6.4;;;;;;;4.6;69.1084;943.0062;;;;
2021/12/20 12:20:34;;;;;;;11.8;6.9;;;;;;;4.43;69.75586;943.0153;;;;
2021/12/20 12:22:59;;;;;;;8;6;;;;;;;4.6;69.0293;942.9936;;;;
2021/12/20 12:25:24;;;;;;;8.8;6.5;;;;;;;4.88;68.27441;942.9829;;;;
2021/12/20 12:27:50;;;;;;;7.9;6.5;;;;;;;5.12;68.25586;943.0143;;;;
2021/12/20 12:30:18;;;;;;;7.5;5.6;;;;;;;5.24;67.44141;942.9411;;;;
2021/12/20 12:32:41;;;;;;;8.1;5.9;;;;;;;5.4;67.09375;943.0147;;;;
2021/12/20 12:35:07;;;;;;;7.7;5.5;;;;;;;5.41;67.25293;943.005;;;;
2021/12/20 12:37:35;;;;;;;8.3;5.7;;;;;;;5.36;67.48242;942.9911;;;;
2021/12/20 12:39:57;;;;;;;8.3;6.1;;;;;;;5.28;67.97754;942.9291;;;;
2021/12/20 12:42:22;;;;;;;8.4;5.8;;;;;;;5.37;68.53125;942.9448;;;;
2021/12/20 12:44:47;;;;;;;7.1;5;;;;;;;5.3;68.59082;942.9047;;;;
2021/12/20 12:47:14;;;;;;;6.9;4.9;;;;;;;5.07;69.3291;942.8561;;;;
2021/12/20 12:49:39;;;;;;;7;5;;;;;;;5.11;69.6748;942.8506;;;;
2021/12/20 12:52:05;;;;;;;8.8;5.5;;;;;;;5.26;69.90332;942.7681;;;;
2021/12/20 12:54:31;;;;;;;7.7;5.3;;;;;;;5.35;69.27441;942.7698;;;;
2021/12/20 12:56:56;;;;;;;9.1;5.7;;;;;;;5.31;69.34766;942.7882;;;;
2021/12/20 12:59:22;;;;;;;6.6;4.9;;;;;;;5.38;69.46094;942.7891;;;;
2021/12/20 13:01:46;;;;;;;7.2;5.5;;;;;;;5.22;69.99707;942.7278;;;;
2021/12/20 13:04:13;;;;;;;8;5.6;;;;;;;4.98;70.46582;942.7328;;;;
2021/12/20 13:06:38;;;;;;;8.2;5.5;;;;;;;4.93;71.31348;942.6976;;;;
2021/12/20 13:09:03;;;;;;;7.9;6.1;;;;;;;5.07;71.49512;942.7056;;;;
2021/12/20 13:11:30;;;;;;;8.7;6.1;;;;;;;4.91;71.55859;942.7806;;;;
2021/12/20 13:13:56;;;;;;;8.2;6.2;;;;;;;4.99;71.56055;942.7852;;;;
2021/12/20 13:16:27;;;;;;;8.5;6.6;;;;;;;5.12;71.84277;942.7644;;;;
2021/12/20 13:18:51;;;;;;;7.9;6.3;;;;;;;5.27;71.02246;942.6462;;;;
2021/12/20 13:21:20;;;;;;;9.8;6.9;;;;;;;5.56;70.3252;942.6433;;;;
2021/12/20 13:23:39;;;;;;;8;5.9;;;;;;;5.67;69.39355;942.6236;;;;
2021/12/20 13:26:11;;;;;;;7.7;5.4;;;;;;;5.96;68.45801;942.7321;;;;
2021/12/20 13:28:34;;;;;;;8.4;5.9;;;;;;;6.02;67.91406;942.7028;;;;
2021/12/20 13:31:04;;;;;;;7.4;5.8;;;;;;;6.33;66.06348;942.7196;;;;
2021/12/20 13:33:31;;;;;;;9;6.1;;;;;;;6.62;64.49023;942.7281;;;;
2021/12/20 13:35:56;;;;;;;7;5.2;;;;;;;6.89;63.33105;942.6753;;;;
2021/12/20 13:38:21;;;;;;;10;6.2;;;;;;;6.78;63.7002;942.6608;;;;
2021/12/20 13:40:46;;;;;;;8.4;6.2;;;;;;;6.5;65.07227;942.7221;;;;
2021/12/20 13:43:11;;;;;;;10.7;7.3;;;;;;;6.47;64.69336;942.7117;;;;
2021/12/20 13:45:37;;;;;;;7.8;6;;;;;;;6.17;65.81348;942.7189;;;;
2021/12/20 13:48:03;;;;;;;7.1;5.3;;;;;;;6.25;65.0127;942.7178;;;;
2021/12/20 13:50:27;;;;;;;9.3;6.1;;;;;;;6.33;65.09082;942.7094;;;;
2021/12/20 13:52:52;;;;;;;9.4;5.7;;;;;;;6.1;65.55371;942.7183;;;;
2021/12/20 13:55:17;;;;;;;8.1;5.5;;;;;;;6.09;66.43457;942.7186;;;;
2021/12/20 13:57:44;;;;;;;8.8;5.4;;;;;;;6;66.31836;942.634;;;;
2021/12/20 14:00:09;;;;;;;7.9;5.9;;;;;;;6.05;66.29199;942.6912;;;;
2021/12/20 14:02:34;;;;;;;10;6.6;;;;;;;5.56;68.15723;942.7388;;;;
2021/12/20 14:05:00;;;;;;;9.7;6.2;;;;;;;5.7;68.04297;942.7249;;;;
2021/12/20 14:07:30;;;;;;;7.6;5.3;;;;;;;5.66;67.75684;942.7593;;;;
2021/12/20 14:09:56;;;;;;;9.7;6.4;;;;;;;5.45;68.08398;942.803;;;;
2021/12/20 14:12:20;;;;;;;8.5;5.6;;;;;;;5.17;69.49316;942.8457;;;;
2021/12/20 14:14:44;;;;;;;9.5;6.6;;;;;;;4.43;72.71777;942.8642;;;;
2021/12/20 14:17:09;;;;;;;10;6.4;;;;;;;4.53;72.20215;942.9372;;;;
2021/12/20 14:19:41;;;;;;;9.7;6.7;;;;;;;4.2;73.78027;942.9543;;;;
2021/12/20 14:22:07;;;;;;;10.7;6.6;;;;;;;4.19;74.07129;942.9437;;;;
2021/12/20 14:24:32;;;;;;;9.8;6.7;;;;;;;4.28;73.93945;943.0184;;;;
2021/12/20 14:26:59;;;;;;;9.5;6.1;;;;;;;4.18;74.06836;943.0039;;;;
2021/12/20 14:29:29;;;;;;;9.1;6.4;;;;;;;4.24;74.08984;942.9722;;;;
2021/12/20 14:32:00;;;;;;;9;6.4;;;;;;;4.31;73.7207;943.0403;;;;
2021/12/20 14:34:19;;;;;;;10.8;6.6;;;;;;;4.31;73.92285;943.0402;;;;
2021/12/20 14:36:45;;;;;;;9;6;;;;;;;4.01;74.63379;942.9369;;;;
2021/12/20 14:39:10;;;;;;;9.7;6.2;;;;;;;3.96;74.57031;943.0411;;;;
2021/12/20 14:41:37;;;;;;;9.5;6.3;;;;;;;3.86;75.47461;942.9966;;;;
2021/12/20 14:44:05;;;;;;;8.8;6.4;;;;;;;3.71;76.07617;943.0997;;;;
2021/12/20 14:46:30;;;;;;;9;6.6;;;;;;;3.81;76.08301;943.0742;;;;
2021/12/20 14:48:57;;;;;;;9.5;6.3;;;;;;;3.88;76.0752;943.1512;;;;
2021/12/20 14:51:19;;;;;;;8.9;6.3;;;;;;;3.75;76.78125;943.1406;;;;
2021/12/20 14:53:44;;;;;;;9.7;7;;;;;;;3.73;76.6084;943.1278;;;;
2021/12/20 14:56:09;;;;;;;9.4;6.5;;;;;;;3.62;76.92676;943.1014;;;;
2021/12/20 14:58:34;;;;;;;10;6.8;;;;;;;3.72;76.99023;943.1401;;;;
2021/12/20 15:01:00;;;;;;;10.3;7.1;;;;;;;3.75;76.67871;943.1617;;;;
2021/12/20 15:03:24;;;;;;;11.9;7.5;;;;;;;3.61;77.39551;943.1331;;;;
2021/12/20 15:05:49;;;;;;;11.2;7.4;;;;;;;3.49;77.65723;943.139;;;;
2021/12/20 15:08:15;;;;;;;13.4;7.9;;;;;;;3.55;77.86914;943.1389;;;;
2021/12/20 15:10:40;;;;;;;10;6.9;;;;;;;3.38;78.63281;943.0736;;;;
2021/12/20 15:13:07;;;;;;;9.5;7.2;;;;;;;3.52;77.97461;943.0927;;;;
2021/12/20 15:15:36;;;;;;;9.6;6.3;;;;;;;3.63;77.76953;943.1479;;;;
2021/12/20 15:18:05;;;;;;;10.3;7.1;;;;;;;3.62;77.70215;943.0517;;;;
2021/12/20 15:20:30;;;;;;;9.6;6.4;;;;;;;3.57;77.84961;943.1256;;;;
2021/12/20 15:22:57;;;;;;;10.2;6.7;;;;;;;3.62;77.49805;943.1005;;;;
2021/12/20 15:25:23;;;;;;;9.8;6.8;;;;;;;3.45;77.70508;943.0959;;;;
2021/12/20 15:27:49;;;;;;;9.5;6.7;;;;;;;3.55;77.55469;943.0767;;;;
2021/12/20 15:30:15;;;;;;;9.5;6.3;;;;;;;3.6;77.29492;943.1194;;;;
2021/12/20 15:32:45;;;;;;;9.1;6.4;;;;;;;3.63;77.39941;943.1465;;;;
2021/12/20 15:35:12;;;;;;;10.5;6.5;;;;;;;3.53;77.80762;943.1482;;;;
2021/12/20 15:37:37;;;;;;;9.3;6.7;;;;;;;3.36;78.29492;943.1509;;;;
2021/12/20 15:40:02;;;;;;;10.8;7.3;;;;;;;3.38;78.44434;943.1415;;;;
2021/12/20 15:42:33;;;;;;;10.9;7.3;;;;;;;3.34;78.69336;943.0695;;;;
2021/12/20 15:44:53;;;;;;;9.1;6.4;;;;;;;3.43;78.31934;943.1582;;;;